createdAt,value
2019-01-31T00:01:21.120Z,51703.25
2019-01-31T00:05:02.115Z,51700.36
2019-01-31T00:08:45.967Z,51716.72
2019-01-31T00:12:27.331Z,51694.59
2019-01-31T00:15:29.684Z,51702.29
2019-01-31T00:18:37.819Z,51709.02
2019-01-31T00:22:26.360Z,51700.36
2019-01-31T00:25:16.972Z,51727.31
2019-01-31T00:28:35.515Z,51716.72
2019-01-31T00:31:50.760Z,51716.72
2019-01-31T00:34:53.278Z,51711.91
2019-01-31T00:38:32.372Z,51725.38
2019-01-31T00:41:25.481Z,51746.55
2019-01-31T00:44:32.651Z,51795.64
2019-01-31T00:47:59.503Z,51757.14
2019-01-31T00:51:01.155Z,51763.88
2019-01-31T00:54:37.377Z,51782.17
2019-01-31T00:57:43.487Z,51765.80
2019-01-31T01:01:04.785Z,51799.49
2019-01-31T01:04:27.160Z,51760.03
2019-01-31T01:07:59.234Z,51808.15
2019-01-31T01:11:27.927Z,51797.57
2019-01-31T01:15:03.930Z,51758.11
2019-01-31T01:18:10.132Z,51798.53
2019-01-31T01:21:15.403Z,51810.08
2019-01-31T01:24:27.333Z,51748.48
2019-01-31T01:28:12.653Z,51775.43
2019-01-31T01:31:19.851Z,51736.93
2019-01-31T01:34:37.354Z,51771.58
2019-01-31T01:37:53.173Z,51759.07
2019-01-31T01:40:56.418Z,51753.29
2019-01-31T01:43:43.397Z,51727.31
2019-01-31T01:46:53.674Z,51746.55
2019-01-31T01:49:36.136Z,51695.55
2019-01-31T01:53:18.822Z,51685.93
2019-01-31T01:56:48.501Z,51713.84
2019-01-31T02:00:08.686Z,51693.62
2019-01-31T02:03:31.757Z,51715.76
2019-01-31T02:07:19.058Z,51692.66
2019-01-31T02:10:49.378Z,51684.96
2019-01-31T02:13:55.163Z,51708.06
2019-01-31T02:16:54.785Z,51678.22
2019-01-31T02:20:14.660Z,51630.11
2019-01-31T02:23:15.203Z,51658.98
2019-01-31T02:26:32.067Z,51629.14
2019-01-31T02:29:25.891Z,51652.24
2019-01-31T02:32:42.340Z,51605.08
2019-01-31T02:36:17.631Z,51614.71
2019-01-31T02:39:42.826Z,51630.11
2019-01-31T02:42:44.352Z,51621.45
2019-01-31T02:46:05.089Z,51602.20
2019-01-31T02:48:53.359Z,51604.12
2019-01-31T02:52:15.276Z,51600.27
2019-01-31T02:55:26.653Z,51562.74
2019-01-31T02:58:40.521Z,51582.95
2019-01-31T03:02:22.298Z,51585.84
2019-01-31T03:05:44.748Z,51575.25
2019-01-31T03:09:11.388Z,51552.15
2019-01-31T03:12:18.985Z,51593.54
2019-01-31T03:15:11.655Z,51566.59
2019-01-31T03:18:23.521Z,51586.80
2019-01-31T03:22:02.471Z,51573.32
2019-01-31T03:25:37.316Z,51539.64
2019-01-31T03:29:00.700Z,51527.13
2019-01-31T03:31:55.792Z,51567.55
2019-01-31T03:35:30.601Z,51560.81
2019-01-31T03:38:34.087Z,51561.77
2019-01-31T03:42:09.438Z,51574.29
2019-01-31T03:45:33.701Z,51607.97
2019-01-31T03:49:19.360Z,51580.06
2019-01-31T03:52:43.730Z,51599.31
2019-01-31T03:56:41.713Z,51632.03
2019-01-31T03:59:51.135Z,51653.20
2019-01-31T04:03:28.243Z,51618.55
2019-01-31T04:06:31.139Z,51639.73
2019-01-31T04:09:01.549Z,51673.41
2019-01-31T04:11:31.575Z,51644.54
2019-01-31T04:14:01.649Z,51647.43
2019-01-31T04:16:31.685Z,51683.04
2019-01-31T04:19:01.693Z,51674.37
2019-01-31T04:21:32.139Z,51664.75
2019-01-31T04:24:02.592Z,51695.55
2019-01-31T04:26:32.949Z,51690.73
2019-01-31T04:29:03.733Z,51713.84
2019-01-31T04:31:33.759Z,51718.64
2019-01-31T04:34:03.837Z,51673.41
2019-01-31T04:36:33.930Z,51686.89
2019-01-31T04:39:05.540Z,51698.43
2019-01-31T04:41:35.568Z,51686.89
2019-01-31T04:44:05.947Z,51671.49
2019-01-31T04:46:36.125Z,51709.02
2019-01-31T04:49:06.288Z,51692.66
2019-01-31T04:51:36.315Z,51708.06
2019-01-31T04:54:06.616Z,51709.98
2019-01-31T04:56:37.010Z,51683.04
2019-01-31T04:59:07.313Z,51697.47
2019-01-31T05:01:37.340Z,51706.14
2019-01-31T05:04:07.421Z,51735.01
2019-01-31T05:06:37.834Z,51708.06
2019-01-31T05:09:09.333Z,51732.12
2019-01-31T05:11:39.365Z,51740.78
2019-01-31T05:14:09.536Z,51685.93
2019-01-31T05:16:39.558Z,51697.47
2019-01-31T05:19:09.909Z,51719.61
2019-01-31T05:21:40.188Z,51722.50
2019-01-31T05:24:10.501Z,51734.05
2019-01-31T05:26:40.610Z,51708.06
2019-01-31T05:29:10.635Z,51731.16
2019-01-31T05:31:40.732Z,51713.84
2019-01-31T05:34:10.762Z,51741.75
2019-01-31T05:36:40.815Z,51710.95
2019-01-31T05:39:11.128Z,51703.25
2019-01-31T05:41:41.540Z,51697.47
2019-01-31T05:44:11.653Z,51713.84
2019-01-31T05:46:41.666Z,51702.29
2019-01-31T05:49:11.769Z,51709.02
2019-01-31T05:51:41.795Z,51732.12
2019-01-31T05:54:11.817Z,51730.20
2019-01-31T05:56:41.838Z,51727.31
2019-01-31T05:59:12.053Z,51753.29
2019-01-31T06:01:42.132Z,51725.38
2019-01-31T06:04:12.377Z,51721.54
2019-01-31T06:06:42.610Z,51750.41
2019-01-31T06:09:13.003Z,51740.78
2019-01-31T06:11:43.029Z,51735.01
2019-01-31T06:14:13.066Z,51712.87
2019-01-31T06:16:43.225Z,51750.41
2019-01-31T06:19:13.428Z,51729.23
2019-01-31T06:21:43.440Z,51706.14
2019-01-31T06:24:13.471Z,51730.20
2019-01-31T06:26:43.579Z,51734.05
2019-01-31T06:29:13.610Z,51713.84
2019-01-31T06:31:43.704Z,51712.87
2019-01-31T06:34:13.737Z,51700.36
2019-01-31T06:36:44.138Z,51725.38
2019-01-31T06:39:14.249Z,51702.29
2019-01-31T06:41:44.415Z,51755.22
2019-01-31T06:44:14.438Z,51709.02
2019-01-31T06:46:44.451Z,51719.61
2019-01-31T06:49:14.492Z,51726.34
2019-01-31T06:51:44.783Z,51686.89
2019-01-31T06:54:15.161Z,51692.66
2019-01-31T06:56:45.197Z,51704.21
2019-01-31T06:59:15.300Z,51666.68
2019-01-31T07:01:45.386Z,51683.04
2019-01-31T07:04:15.572Z,51677.26
2019-01-31T07:06:45.906Z,51646.46
2019-01-31T07:09:16.089Z,51667.64
2019-01-31T07:11:46.173Z,51614.71
2019-01-31T07:14:16.270Z,51698.43
2019-01-31T07:16:46.673Z,51619.52
2019-01-31T07:19:16.766Z,51632.99
2019-01-31T07:21:46.865Z,51619.52
2019-01-31T07:24:17.031Z,51622.41
2019-01-31T07:26:47.136Z,51588.72
2019-01-31T07:29:17.162Z,51600.27
2019-01-31T07:31:47.363Z,51569.48
2019-01-31T07:34:17.417Z,51586.80
2019-01-31T07:36:47.785Z,51574.29
2019-01-31T07:39:17.888Z,51541.57
2019-01-31T07:41:47.986Z,51555.04
2019-01-31T07:44:18.292Z,51543.49
2019-01-31T07:46:48.334Z,51519.43
2019-01-31T07:49:18.466Z,51514.62
2019-01-31T07:51:48.739Z,51519.43
2019-01-31T07:54:18.860Z,51503.07
2019-01-31T07:56:48.884Z,51489.60
2019-01-31T07:59:19.143Z,51466.50
2019-01-31T08:01:49.330Z,51469.39
2019-01-31T08:04:19.367Z,51484.79
2019-01-31T08:06:49.553Z,51425.13
2019-01-31T08:09:19.571Z,51423.20
2019-01-31T08:11:52.681Z,51399.14
2019-01-31T08:14:21.482Z,51379.89
2019-01-31T08:16:51.574Z,51398.18
2019-01-31T08:19:22.240Z,51367.38
2019-01-31T08:21:52.691Z,51359.69
2019-01-31T08:24:23.022Z,51342.36
2019-01-31T08:26:55.825Z,51326.97
2019-01-31T08:29:25.101Z,51300.98
2019-01-31T08:31:55.133Z,51313.50
2019-01-31T08:34:25.854Z,51367.38
2019-01-31T08:36:56.176Z,51331.78
2019-01-31T08:39:26.426Z,51371.23
2019-01-31T08:42:03.443Z,51341.40
2019-01-31T08:44:28.445Z,51357.76
2019-01-31T08:46:58.482Z,51326.97
2019-01-31T08:49:28.563Z,51292.32
2019-01-31T08:51:58.837Z,51325.04
2019-01-31T08:54:28.928Z,51302.91
2019-01-31T08:56:59.025Z,51297.14
2019-01-31T08:59:29.706Z,51301.95
2019-01-31T09:01:59.812Z,51354.87
2019-01-31T09:04:29.825Z,51326.97
2019-01-31T09:06:59.931Z,51326.97
2019-01-31T09:09:29.988Z,51327.93
2019-01-31T09:11:59.971Z,51298.10
2019-01-31T09:14:30.134Z,51336.59
2019-01-31T09:17:00.234Z,51326.97
2019-01-31T09:19:30.262Z,51325.04
2019-01-31T09:22:40.497Z,51305.80
2019-01-31T09:26:11.776Z,51314.46
2019-01-31T09:29:13.816Z,51303.87
2019-01-31T09:32:33.440Z,51289.44
2019-01-31T09:35:58.550Z,51300.02
2019-01-31T09:39:30.104Z,51284.63
2019-01-31T09:42:33.588Z,51291.36
2019-01-31T09:45:29.432Z,51265.38
2019-01-31T09:49:23.491Z,51225.93
2019-01-31T09:52:41.438Z,51238.44
2019-01-31T09:56:16.055Z,51240.36
2019-01-31T10:00:07.596Z,51219.19
2019-01-31T10:03:25.968Z,51184.55
2019-01-31T10:06:41.653Z,51230.74
2019-01-31T10:10:03.733Z,51181.66
2019-01-31T10:13:20.658Z,51141.25
2019-01-31T10:16:40.345Z,51112.38
2019-01-31T10:19:59.427Z,51119.12
2019-01-31T10:23:21.037Z,51097.95
2019-01-31T10:26:37.580Z,51095.06
2019-01-31T10:29:56.179Z,51072.93
2019-01-31T10:33:25.791Z,51071.00
2019-01-31T10:36:14.396Z,51076.78
2019-01-31T10:39:59.658Z,51051.76
2019-01-31T10:43:02.332Z,50987.29
2019-01-31T10:46:22.230Z,50985.37
2019-01-31T10:49:51.767Z,50969.01
2019-01-31T10:53:18.796Z,50999.80
2019-01-31T10:57:10.631Z,50936.30
2019-01-31T11:00:26.216Z,50951.69
2019-01-31T11:03:41.278Z,50894.92
2019-01-31T11:07:09.671Z,50917.05
2019-01-31T11:10:20.885Z,50948.80
2019-01-31T11:13:40.019Z,50957.46
2019-01-31T11:16:57.439Z,50965.16
2019-01-31T11:20:38.436Z,50951.69
2019-01-31T11:24:10.630Z,50917.05
2019-01-31T11:27:28.886Z,50907.43
2019-01-31T11:30:53.298Z,50843.93
2019-01-31T11:34:17.731Z,50830.46
2019-01-31T11:37:06.791Z,50801.59
2019-01-31T11:40:39.330Z,50818.91
2019-01-31T11:43:52.689Z,50862.21
2019-01-31T11:47:18.504Z,50877.60
2019-01-31T11:50:16.697Z,50884.34
2019-01-31T11:53:37.416Z,50869.91
2019-01-31T11:57:05.005Z,50870.87
2019-01-31T11:59:25.620Z,50845.85
2019-01-31T12:01:55.897Z,50870.87
2019-01-31T12:04:26.052Z,50888.19
2019-01-31T12:06:56.144Z,50886.26
2019-01-31T12:09:26.580Z,50887.23
2019-01-31T12:11:56.850Z,50892.04
2019-01-31T12:14:27.201Z,50904.54
2019-01-31T12:16:57.223Z,50914.17
2019-01-31T12:19:27.684Z,50926.68
2019-01-31T12:21:57.963Z,50929.56
2019-01-31T12:24:28.048Z,50926.68
2019-01-31T12:26:58.225Z,50920.90
2019-01-31T12:29:28.241Z,50959.39
2019-01-31T12:31:58.679Z,50983.45
2019-01-31T12:34:28.777Z,50951.69
2019-01-31T12:36:58.940Z,50967.09
2019-01-31T12:39:29.540Z,50981.52
2019-01-31T12:41:59.881Z,50971.90
2019-01-31T12:44:30.183Z,50976.71
2019-01-31T12:47:00.513Z,51013.27
2019-01-31T12:49:31.245Z,51004.61
2019-01-31T12:52:04.073Z,51013.27
2019-01-31T12:54:33.234Z,51031.55
2019-01-31T12:57:03.310Z,51030.59
2019-01-31T12:59:33.629Z,51078.70
2019-01-31T13:02:04.433Z,51072.93
2019-01-31T13:04:34.604Z,51085.44
2019-01-31T13:07:05.273Z,51073.89
2019-01-31T13:09:35.374Z,51098.91
2019-01-31T13:12:06.397Z,51102.76
2019-01-31T13:14:36.738Z,51110.46
2019-01-31T13:17:08.096Z,51137.40
2019-01-31T13:19:38.125Z,51119.12
2019-01-31T13:22:08.413Z,51111.42
2019-01-31T13:24:38.578Z,51130.66
2019-01-31T13:27:08.722Z,51107.57
2019-01-31T13:29:38.750Z,51084.48
2019-01-31T13:32:09.216Z,51101.80
2019-01-31T13:34:39.590Z,51084.48
2019-01-31T13:37:09.977Z,51071.97
2019-01-31T13:39:40.072Z,51006.54
2019-01-31T13:42:10.081Z,51024.82
2019-01-31T13:44:40.421Z,51042.14
2019-01-31T13:47:10.603Z,51068.12
2019-01-31T13:49:41.029Z,51063.31
2019-01-31T13:52:11.204Z,51080.62
2019-01-31T13:54:41.444Z,51083.52
2019-01-31T13:57:11.605Z,51100.83
2019-01-31T13:59:41.711Z,51150.87
2019-01-31T14:02:11.826Z,51131.63
2019-01-31T14:04:42.159Z,51147.98
2019-01-31T14:07:12.604Z,51174.93
2019-01-31T14:09:42.716Z,51169.15
2019-01-31T14:12:12.818Z,51178.78
2019-01-31T14:14:42.914Z,51192.25
2019-01-31T14:17:12.942Z,51205.72
2019-01-31T14:19:42.952Z,51207.64
2019-01-31T14:22:13.045Z,51241.32
2019-01-31T14:24:43.831Z,51249.02
2019-01-31T14:27:14.041Z,51254.80
2019-01-31T14:29:44.130Z,51282.70
2019-01-31T14:32:15.712Z,51236.51
2019-01-31T14:34:45.677Z,51259.61
2019-01-31T14:37:15.784Z,51243.25
2019-01-31T14:39:45.858Z,51275.00
2019-01-31T14:42:16.246Z,51272.12
2019-01-31T14:44:46.323Z,51289.44
2019-01-31T14:47:16.409Z,51261.53
2019-01-31T14:49:46.420Z,51283.66
2019-01-31T14:52:16.510Z,51067.16
2019-01-31T14:54:46.518Z,50893.96
2019-01-31T14:57:16.551Z,50994.99
2019-01-31T14:59:46.563Z,50760.22
2019-01-31T15:02:16.935Z,50702.49
2019-01-31T15:04:46.939Z,50672.67
2019-01-31T15:07:17.102Z,50757.33
2019-01-31T15:09:47.475Z,50886.26
2019-01-31T15:12:17.570Z,50959.39
2019-01-31T15:14:48.078Z,50965.16
2019-01-31T15:17:18.718Z,51070.04
2019-01-31T15:19:48.811Z,51120.08
2019-01-31T15:22:19.013Z,51156.64
2019-01-31T15:24:49.379Z,51209.57
2019-01-31T15:27:19.488Z,51191.29
2019-01-31T15:29:49.587Z,51235.55
2019-01-31T15:32:19.610Z,51236.51
2019-01-31T15:34:49.632Z,51235.55
2019-01-31T15:37:19.649Z,51257.68
2019-01-31T15:39:49.653Z,51288.48
2019-01-31T15:42:19.669Z,51328.89
2019-01-31T15:44:49.669Z,51280.78
2019-01-31T15:47:19.839Z,51332.74
2019-01-31T15:49:49.985Z,51361.61
2019-01-31T15:52:20.284Z,51332.74
2019-01-31T15:54:50.365Z,51380.86
2019-01-31T15:57:20.533Z,51374.12
2019-01-31T15:59:51.360Z,51363.54
2019-01-31T16:02:21.519Z,51367.38
2019-01-31T16:04:51.690Z,51369.31
2019-01-31T16:07:21.863Z,51419.35
2019-01-31T16:09:52.046Z,51431.86
2019-01-31T16:12:22.400Z,51419.35
2019-01-31T16:14:54.906Z,51445.33
2019-01-31T16:17:24.281Z,51436.67
2019-01-31T16:19:54.297Z,51423.20
2019-01-31T16:22:24.779Z,51470.35
2019-01-31T16:24:54.886Z,51504.04
2019-01-31T16:27:25.050Z,51492.49
2019-01-31T16:29:55.206Z,51486.71
2019-01-31T16:32:25.573Z,51479.98
2019-01-31T16:34:55.665Z,51542.53
2019-01-31T16:37:25.743Z,51538.68
2019-01-31T16:39:55.768Z,51527.13
2019-01-31T16:42:25.858Z,51519.43
2019-01-31T16:45:06.166Z,51549.27
2019-01-31T16:47:27.833Z,51532.91
2019-01-31T16:49:57.936Z,51554.08
2019-01-31T16:52:28.329Z,51556.00
2019-01-31T16:54:58.440Z,51575.25
2019-01-31T16:57:28.616Z,51605.08
2019-01-31T16:59:58.800Z,51587.76
2019-01-31T17:02:29.081Z,51619.52
2019-01-31T17:04:59.118Z,51648.39
2019-01-31T17:07:29.202Z,51654.16
2019-01-31T17:09:59.318Z,51674.37
2019-01-31T17:12:29.735Z,51681.11
2019-01-31T17:14:59.763Z,51670.52
2019-01-31T17:17:29.854Z,51684.00
2019-01-31T17:19:59.947Z,51689.77
2019-01-31T17:22:30.036Z,51673.41
2019-01-31T17:25:00.309Z,51708.06
2019-01-31T17:27:30.327Z,51734.05
2019-01-31T17:30:00.378Z,51672.45
2019-01-31T17:32:30.407Z,51759.07
2019-01-31T17:35:00.757Z,51723.46
2019-01-31T17:37:30.802Z,51699.40
2019-01-31T17:40:00.824Z,51725.38
2019-01-31T17:42:30.867Z,51746.55
2019-01-31T17:45:00.892Z,51774.46
2019-01-31T17:47:31.071Z,51757.14
2019-01-31T17:50:01.248Z,51746.55
2019-01-31T17:52:31.347Z,51755.22
2019-01-31T17:55:01.369Z,51725.38
2019-01-31T17:57:31.466Z,51775.43
2019-01-31T18:00:01.563Z,51744.63
2019-01-31T18:02:31.743Z,51742.71
2019-01-31T18:05:01.773Z,51745.59
2019-01-31T18:07:31.827Z,51761.96
2019-01-31T18:10:01.922Z,51763.88
2019-01-31T18:12:31.956Z,51763.88
2019-01-31T18:15:02.076Z,51751.37
2019-01-31T18:17:32.526Z,51768.69
2019-01-31T18:20:02.628Z,51748.48
2019-01-31T18:22:32.933Z,51731.16
2019-01-31T18:25:03.033Z,51759.07
2019-01-31T18:27:33.213Z,51759.07
2019-01-31T18:30:03.636Z,51774.46
2019-01-31T18:32:33.826Z,51778.32
2019-01-31T18:35:04.044Z,51760.99
2019-01-31T18:37:34.164Z,51773.50
2019-01-31T18:40:05.922Z,51796.60
2019-01-31T18:42:36.230Z,51775.43
2019-01-31T18:45:09.885Z,51749.45
2019-01-31T18:47:39.931Z,51766.77
2019-01-31T18:50:14.735Z,51798.53
2019-01-31T18:52:45.172Z,51777.36
2019-01-31T18:55:15.624Z,51778.32
2019-01-31T18:57:45.832Z,51779.28
2019-01-31T19:00:24.336Z,51813.93
2019-01-31T19:02:54.789Z,51831.25
2019-01-31T19:05:25.236Z,51811.04
2019-01-31T19:07:55.683Z,51817.78
2019-01-31T19:10:25.928Z,51838.95
2019-01-31T19:12:56.106Z,51855.31
2019-01-31T19:15:26.369Z,51886.11
2019-01-31T19:18:05.557Z,51868.79
2019-01-31T19:20:30.951Z,51842.80
2019-01-31T19:23:02.741Z,51835.10
2019-01-31T19:25:33.066Z,51841.84
2019-01-31T19:28:03.157Z,51870.71
2019-01-31T19:30:39.151Z,51892.85
2019-01-31T19:33:09.648Z,51924.61
2019-01-31T19:35:40.162Z,51935.20
2019-01-31T19:38:11.128Z,51934.23
2019-01-31T19:40:44.657Z,51971.77
2019-01-31T19:43:15.097Z,51951.55
2019-01-31T19:45:50.570Z,51973.70
2019-01-31T19:48:20.786Z,51971.77
2019-01-31T19:50:50.975Z,52030.48
2019-01-31T19:53:21.137Z,52082.46
2019-01-31T19:55:51.315Z,52079.57
2019-01-31T19:58:21.437Z,52090.16
2019-01-31T20:00:52.052Z,52060.32
2019-01-31T20:03:22.445Z,52135.39
2019-01-31T20:05:53.001Z,52081.49
2019-01-31T20:08:23.171Z,52116.14
2019-01-31T20:10:53.377Z,52072.83
2019-01-31T20:13:24.395Z,52094.01
2019-01-31T20:15:54.580Z,52092.08
2019-01-31T20:18:24.699Z,52064.17
2019-01-31T20:20:54.794Z,52103.63
2019-01-31T20:23:24.970Z,52051.66
2019-01-31T20:25:55.150Z,52058.39
2019-01-31T20:28:25.401Z,52097.86
2019-01-31T20:30:55.575Z,52056.47
2019-01-31T20:33:25.939Z,52045.88
2019-01-31T20:35:56.393Z,52086.31
2019-01-31T20:38:26.415Z,52091.12
2019-01-31T20:40:56.859Z,52094.97
2019-01-31T20:43:26.942Z,52123.84
2019-01-31T20:45:57.058Z,52099.78
2019-01-31T20:48:27.229Z,52095.93
2019-01-31T20:50:57.334Z,52094.97
2019-01-31T20:53:27.426Z,52132.51
2019-01-31T20:55:57.608Z,52143.10
2019-01-31T20:58:27.715Z,52124.81
2019-01-31T21:00:57.834Z,52152.72
2019-01-31T21:03:28.023Z,52158.50
2019-01-31T21:05:58.745Z,52139.25
2019-01-31T21:08:28.766Z,52153.68
2019-01-31T21:10:58.953Z,52156.57
2019-01-31T21:13:29.297Z,52168.12
2019-01-31T21:15:59.395Z,52128.66
2019-01-31T21:18:29.681Z,52131.54
2019-01-31T21:20:59.853Z,52106.52
2019-01-31T21:23:30.280Z,52088.23
2019-01-31T21:26:00.445Z,52069.95
2019-01-31T21:28:30.548Z,52019.89
2019-01-31T21:31:00.643Z,52008.34
2019-01-31T21:33:30.754Z,51967.92
2019-01-31T21:36:00.917Z,51894.77
2019-01-31T21:38:30.950Z,51889.00
2019-01-31T21:41:00.971Z,51803.34
2019-01-31T21:43:31.365Z,51808.15
2019-01-31T21:46:01.376Z,51812.96
2019-01-31T21:48:31.478Z,51782.17
2019-01-31T21:51:01.643Z,51729.23
2019-01-31T21:53:31.742Z,51725.38
2019-01-31T21:56:01.903Z,51693.62
2019-01-31T21:58:32.001Z,51705.17
2019-01-31T22:01:02.317Z,51697.47
2019-01-31T22:03:32.745Z,51688.81
2019-01-31T22:06:02.914Z,51665.71
2019-01-31T22:08:33.015Z,51628.18
2019-01-31T22:11:03.269Z,51628.18
2019-01-31T22:13:33.302Z,51646.46
2019-01-31T22:16:03.394Z,51620.48
2019-01-31T22:18:33.567Z,51584.87
2019-01-31T22:21:03.659Z,51599.31
2019-01-31T22:23:33.680Z,51601.23
2019-01-31T22:26:03.837Z,51593.54
2019-01-31T22:28:33.878Z,51601.23
2019-01-31T22:31:03.955Z,51587.76
2019-01-31T22:33:34.334Z,51555.04
2019-01-31T22:36:04.740Z,51592.57
2019-01-31T22:38:34.861Z,51571.40
2019-01-31T22:41:04.940Z,51550.23
2019-01-31T22:43:35.060Z,51556.00
2019-01-31T22:46:05.236Z,51543.49
2019-01-31T22:48:35.322Z,51529.06
2019-01-31T22:51:05.567Z,51535.79
2019-01-31T22:53:35.579Z,51504.04
2019-01-31T22:56:05.853Z,51533.87
2019-01-31T22:58:36.526Z,51520.39
2019-01-31T23:01:40.594Z,51565.62
2019-01-31T23:04:11.822Z,51543.49
2019-01-31T23:06:43.063Z,51531.94
2019-01-31T23:09:16.423Z,51544.45
2019-01-31T23:11:46.592Z,51530.02
2019-01-31T23:14:16.741Z,51539.64
2019-01-31T23:16:46.916Z,51519.43
2019-01-31T23:19:17.082Z,51528.09
2019-01-31T23:21:47.879Z,51521.36
2019-01-31T23:24:17.964Z,51525.21
2019-01-31T23:26:48.732Z,51515.58
2019-01-31T23:29:19.079Z,51550.23
2019-01-31T23:31:49.173Z,51543.49
2019-01-31T23:34:19.550Z,51486.71
2019-01-31T23:36:49.650Z,51479.01
2019-01-31T23:39:19.817Z,51499.22
2019-01-31T23:41:49.910Z,51505.00
2019-01-31T23:44:19.923Z,51499.22
2019-01-31T23:46:50.025Z,51505.00
2019-01-31T23:49:20.116Z,51478.05
2019-01-31T23:51:50.146Z,51513.66
2019-01-31T23:54:20.160Z,51523.28
2019-01-31T23:56:50.228Z,51505.00
2019-01-31T23:59:20.316Z,51526.17
